Time;durP1;ratioP1;P1;durP2;ratioP2;P2;SDS_P1;SDS_P2;PMS_P1;PMS_P2;Temp;Humidity;BMP_temperature;BMP_pressure;BME280_temperature;BME280_humidity;BME280_pressure;Samples;Min_cycle;Max_cycle;Signal;HPM_P1;HPM_P2
2023/01/01 00:01:22;;;;;;;41.23;38.07;;;;;;;11.60;100.00;100157.97;5022145;28;20433;-45
2023/01/01 00:03:51;;;;;;;40.77;37.87;;;;;;;11.57;100.00;100167.22;5028726;28;20929;-47
2023/01/01 00:06:19;;;;;;;42.33;38.83;;;;;;;11.56;100.00;100162.09;5026512;28;20460;-44
2023/01/01 00:08:47;;;;;;;42.60;38.90;;;;;;;11.57;100.00;100166.41;5011661;28;20978;-44
2023/01/01 00:11:15;;;;;;;41.50;37.97;;;;;;;11.55;100.00;100169.31;5028472;28;20802;-45
2023/01/01 00:13:43;;;;;;;40.30;37.50;;;;;;;11.56;100.00;100167.44;5019592;28;21118;-46
2023/01/01 00:16:14;;;;;;;43.63;39.87;;;;;;;11.56;100.00;100175.44;5030915;28;20466;-48
2023/01/01 00:18:42;;;;;;;43.03;39.73;;;;;;;11.53;100.00;100182.03;5021916;28;20437;-45
2023/01/01 00:21:12;;;;;;;43.30;39.20;;;;;;;11.49;100.00;100169.34;5015139;28;20430;-45
2023/01/01 00:23:41;;;;;;;42.30;38.47;;;;;;;11.46;100.00;100178.63;5010652;28;20483;-47
2023/01/01 00:26:09;;;;;;;38.17;35.33;;;;;;;11.45;100.00;100181.47;5010695;28;20461;-44
2023/01/01 00:28:37;;;;;;;41.07;37.57;;;;;;;11.44;100.00;100161.19;5011833;28;20451;-46
2023/01/01 00:31:07;;;;;;;37.87;35.23;;;;;;;11.41;100.00;100169.63;5011539;28;20437;-47
2023/01/01 00:33:36;;;;;;;39.17;36.27;;;;;;;11.46;100.00;100173.28;5018327;28;20502;-44
2023/01/01 00:36:07;;;;;;;37.87;34.87;;;;;;;11.48;100.00;100165.03;5016293;28;20461;-50
2023/01/01 00:38:34;;;;;;;35.50;32.60;;;;;;;11.49;100.00;100174.69;5022006;28;20448;-45
2023/01/01 00:41:02;;;;;;;35.53;32.70;;;;;;;11.50;100.00;100170.97;5029604;28;20447;-47
2023/01/01 00:43:30;;;;;;;35.50;32.93;;;;;;;11.55;100.00;100171.97;5017942;28;20472;-47
2023/01/01 00:45:58;;;;;;;35.93;33.10;;;;;;;11.58;100.00;100168.88;5023471;28;20867;-45
2023/01/01 00:48:26;;;;;;;35.10;32.07;;;;;;;11.59;100.00;100157.13;5011333;28;20437;-45
2023/01/01 00:50:55;;;;;;;36.10;33.33;;;;;;;11.66;100.00;100167.78;5010655;28;20436;-48
2023/01/01 00:53:22;;;;;;;36.67;33.67;;;;;;;11.71;100.00;100157.28;5016099;28;20990;-46
2023/01/01 00:55:51;;;;;;;36.27;33.17;;;;;;;11.77;100.00;100158.28;5029631;28;20795;-49
2023/01/01 00:58:19;;;;;;;34.73;32.13;;;;;;;11.81;100.00;100162.97;5030605;28;20468;-47
2023/01/01 01:00:47;;;;;;;37.47;34.43;;;;;;;11.84;100.00;100167.03;5012630;28;20978;-45
2023/01/01 01:03:27;;;;;;;36.47;33.50;;;;;;;11.83;100.00;100163.56;5015312;28;20475;-45
2023/01/01 01:05:58;;;;;;;36.27;33.77;;;;;;;11.85;100.00;100163.34;5023079;28;20837;-46
2023/01/01 01:08:27;;;;;;;34.83;32.17;;;;;;;11.86;100.00;100155.09;5011047;28;20436;-45
2023/01/01 01:11:04;;;;;;;35.37;32.60;;;;;;;11.86;100.00;100160.44;5029559;28;20470;-45
2023/01/01 01:13:32;;;;;;;35.97;33.23;;;;;;;11.88;100.00;100162.91;5024739;28;20464;-45
2023/01/01 01:16:00;;;;;;;36.30;33.43;;;;;;;11.94;100.00;100154.03;5022796;28;20464;-47
2023/01/01 01:18:27;;;;;;;36.50;33.63;;;;;;;11.95;100.00;100169.81;5018808;28;20535;-44
2023/01/01 01:20:56;;;;;;;35.50;33.10;;;;;;;12.00;100.00;100161.16;5013045;28;20425;-45
2023/01/01 01:23:24;;;;;;;36.17;33.43;;;;;;;12.00;100.00;100163.84;5026841;28;20487;-46
2023/01/01 01:25:52;;;;;;;37.87;35.07;;;;;;;12.03;100.00;100156.19;5029170;28;20460;-46
2023/01/01 01:28:19;;;;;;;39.23;36.13;;;;;;;12.07;100.00;100172.59;5030177;28;20437;-45
2023/01/01 01:30:47;;;;;;;41.97;38.07;;;;;;;12.07;100.00;100154.69;5029633;28;20439;-47
2023/01/01 01:33:16;;;;;;;43.70;40.23;;;;;;;12.12;100.00;100167.41;5012681;28;21082;-47
2023/01/01 01:35:50;;;;;;;39.60;36.40;;;;;;;12.15;100.00;100175.81;5015345;28;20471;-45
2023/01/01 01:38:19;;;;;;;39.43;36.50;;;;;;;12.20;100.00;100169.81;5021166;28;20836;-44
2023/01/01 01:40:47;;;;;;;40.33;37.03;;;;;;;12.24;100.00;100162.97;5012786;28;20421;-45
2023/01/01 01:43:21;;;;;;;39.57;36.43;;;;;;;12.27;100.00;100173.22;5008957;28;20461;-45
2023/01/01 01:45:49;;;;;;;38.97;35.93;;;;;;;12.30;100.00;100162.09;5016640;28;20453;-46
2023/01/01 01:48:17;;;;;;;39.53;36.17;;;;;;;12.33;100.00;100169.69;5030369;28;20451;-47
2023/01/01 01:50:48;;;;;;;40.77;37.67;;;;;;;12.34;100.00;100173.97;5029606;28;20527;-44
2023/01/01 01:53:23;;;;;;;39.03;36.43;;;;;;;12.34;100.00;100171.28;5023305;28;20899;-50
2023/01/01 01:55:56;;;;;;;39.00;36.17;;;;;;;12.36;100.00;100173.75;5009776;28;20818;-45
2023/01/01 01:58:26;;;;;;;40.37;36.93;;;;;;;12.38;100.00;100183.19;5022651;28;20970;-45
2023/01/01 02:00:55;;;;;;;39.73;36.70;;;;;;;12.41;100.00;100179.25;5010089;28;20430;-45
2023/01/01 02:03:27;;;;;;;39.93;36.90;;;;;;;12.42;100.00;100170.19;5009711;28;21068;-45
2023/01/01 02:05:54;;;;;;;43.97;39.93;;;;;;;12.44;100.00;100190.31;5025543;28;20456;-47
2023/01/01 02:08:25;;;;;;;41.90;38.23;;;;;;;12.48;100.00;100186.19;5015964;28;20512;-46
2023/01/01 02:10:52;;;;;;;40.10;37.00;;;;;;;12.49;100.00;100185.13;5018597;28;20428;-45
2023/01/01 02:13:20;;;;;;;38.40;35.80;;;;;;;12.51;100.00;100201.78;5026464;28;20834;-44
2023/01/01 02:15:54;;;;;;;42.30;38.70;;;;;;;12.51;100.00;100196.44;5032606;28;21033;-46
2023/01/01 02:18:29;;;;;;;41.17;36.87;;;;;;;12.52;100.00;100198.06;5033850;28;20992;-45
2023/01/01 02:21:04;;;;;;;43.73;39.37;;;;;;;12.51;100.00;100196.44;5015642;28;20444;-47
2023/01/01 02:23:55;;;;;;;39.43;36.53;;;;;;;12.55;100.00;100204.81;5012544;28;20472;-45
2023/01/01 02:26:41;;;;;;;40.27;36.80;;;;;;;12.55;100.00;100200.28;5024220;28;20449;-46
2023/01/01 02:29:20;;;;;;;41.50;38.03;;;;;;;12.57;100.00;100200.88;5013430;28;20432;-45
2023/01/01 02:31:54;;;;;;;39.63;36.50;;;;;;;12.56;100.00;100199.25;5025636;28;20426;-47
2023/01/01 02:34:27;;;;;;;39.60;36.60;;;;;;;12.54;100.00;100214.72;5021587;28;20952;-47
2023/01/01 02:36:57;;;;;;;42.37;38.77;;;;;;;12.51;100.00;100215.16;5033025;28;20463;-46
2023/01/01 02:39:29;;;;;;;41.00;37.63;;;;;;;12.48;100.00;100210.25;5022779;28;20432;-49
2023/01/01 02:41:58;;;;;;;38.73;35.60;;;;;;;12.52;100.00;100234.66;5013028;28;20567;-48
2023/01/01 02:44:31;;;;;;;39.00;36.03;;;;;;;12.53;100.00;100209.56;5027182;28;20508;-44
2023/01/01 02:47:08;;;;;;;39.87;36.93;;;;;;;12.49;100.00;100219.06;5033193;28;20452;-44
2023/01/01 02:49:40;;;;;;;41.37;38.37;;;;;;;12.44;100.00;100198.34;5032694;28;20933;-48
2023/01/01 02:52:16;;;;;;;41.60;38.07;;;;;;;12.45;100.00;100204.53;5024790;28;20558;-49
2023/01/01 02:54:52;;;;;;;42.97;38.90;;;;;;;12.42;100.00;100212.97;5014096;28;20827;-45
2023/01/01 02:57:31;;;;;;;42.03;38.63;;;;;;;12.43;100.00;100225.28;5026219;28;20833;-45
2023/01/01 03:00:22;;;;;;;45.63;41.97;;;;;;;12.33;100.00;100236.53;5017424;28;20436;-46
2023/01/01 03:03:06;;;;;;;43.13;39.60;;;;;;;12.28;100.00;100224.81;5014561;28;20457;-44
2023/01/01 03:06:21;;;;;;;43.73;40.17;;;;;;;12.19;100.00;100225.13;5032036;28;20483;-45
2023/01/01 03:08:36;;;;;;;44.63;40.40;;;;;;;12.14;100.00;100224.97;5014257;28;20451;-47
2023/01/01 03:11:08;;;;;;;43.20;39.97;;;;;;;12.08;100.00;100220.50;5021643;28;20425;-47
2023/01/01 03:13:45;;;;;;;46.87;42.40;;;;;;;12.07;100.00;100232.22;5030986;28;20546;-46
2023/01/01 03:16:18;;;;;;;46.30;42.20;;;;;;;12.08;100.00;100239.19;5032037;28;20458;-46
2023/01/01 03:19:09;;;;;;;45.03;41.50;;;;;;;12.10;100.00;100241.63;5032597;28;20444;-46
2023/01/01 03:21:43;;;;;;;48.07;43.87;;;;;;;12.04;100.00;100229.16;5014089;28;21133;-44
2023/01/01 03:24:19;;;;;;;52.90;48.00;;;;;;;11.98;100.00;100267.44;5011037;28;20472;-45
2023/01/01 03:26:52;;;;;;;53.23;48.70;;;;;;;11.88;100.00;100259.09;5032175;28;20463;-44
2023/01/01 03:29:22;;;;;;;53.43;48.23;;;;;;;11.82;100.00;100276.00;5032095;28;21084;-46
2023/01/01 03:31:56;;;;;;;52.30;47.37;;;;;;;11.84;100.00;100266.72;5019261;28;20989;-45
2023/01/01 03:34:31;;;;;;;52.90;47.77;;;;;;;11.87;100.00;100265.47;5009916;28;20861;-49
2023/01/01 03:37:03;;;;;;;54.30;49.00;;;;;;;11.88;100.00;100267.09;5016748;28;20491;-46
2023/01/01 03:39:35;;;;;;;51.80;46.90;;;;;;;11.89;100.00;100285.59;5020387;28;20445;-45
2023/01/01 03:42:12;;;;;;;52.70;48.17;;;;;;;11.89;100.00;100284.75;5024917;28;20429;-44
2023/01/01 03:44:46;;;;;;;54.67;49.40;;;;;;;11.89;100.00;100274.06;5011044;28;20476;-47
2023/01/01 03:47:15;;;;;;;55.13;50.27;;;;;;;11.91;100.00;100302.25;5016828;28;20466;-48
2023/01/01 03:49:45;;;;;;;53.07;47.77;;;;;;;11.92;100.00;100295.00;5020587;28;20425;-45
2023/01/01 03:52:26;;;;;;;53.53;48.90;;;;;;;11.93;100.00;100294.00;5022384;28;20426;-45
2023/01/01 03:55:04;;;;;;;55.47;50.23;;;;;;;11.93;100.00;100305.50;5026000;28;20496;-44
2023/01/01 03:57:42;;;;;;;54.30;49.03;;;;;;;11.95;100.00;100303.44;5031229;28;20436;-44
2023/01/01 04:00:15;;;;;;;56.63;51.03;;;;;;;11.94;100.00;100306.31;5031778;28;20428;-45
2023/01/01 04:02:49;;;;;;;54.00;49.40;;;;;;;11.94;100.00;100323.19;5021689;28;20464;-46
2023/01/01 04:05:18;;;;;;;52.27;47.77;;;;;;;11.92;100.00;100324.41;5030922;28;20506;-46
2023/01/01 04:07:47;;;;;;;54.33;49.53;;;;;;;11.92;100.00;100313.72;5014924;28;20470;-46
2023/01/01 04:10:18;;;;;;;52.87;48.07;;;;;;;11.88;100.00;100309.84;5020542;28;20428;-45
2023/01/01 04:12:49;;;;;;;56.17;51.17;;;;;;;11.85;100.00;100307.63;5010466;28;20457;-44
2023/01/01 04:15:18;;;;;;;57.87;52.13;;;;;;;11.87;100.00;100310.88;5030524;28;20464;-47
2023/01/01 04:17:48;;;;;;;58.47;53.23;;;;;;;11.86;100.00;100325.25;5031406;28;20440;-44
2023/01/01 04:20:17;;;;;;;57.90;52.37;;;;;;;11.81;100.00;100312.56;5026972;28;20837;-48
2023/01/01 04:22:45;;;;;;;59.33;53.30;;;;;;;11.84;100.00;100325.50;5009390;28;20995;-47
2023/01/01 04:25:13;;;;;;;60.10;53.23;;;;;;;11.86;100.00;100309.22;5010510;28;20889;-45
2023/01/01 04:27:41;;;;;;;58.80;53.37;;;;;;;11.82;100.00;100324.06;5030457;28;20440;-45
2023/01/01 04:30:12;;;;;;;59.97;54.30;;;;;;;11.82;100.00;100324.06;5022646;28;20452;-50
2023/01/01 04:32:39;;;;;;;61.20;55.50;;;;;;;11.84;100.00;100332.69;5009342;28;20461;-45
2023/01/01 04:35:11;;;;;;;63.60;57.63;;;;;;;11.82;100.00;100319.56;5029903;28;20440;-45
2023/01/01 04:37:40;;;;;;;64.90;58.80;;;;;;;11.77;100.00;100329.25;5028841;28;20436;-46
2023/01/01 04:40:09;;;;;;;65.87;58.80;;;;;;;11.77;100.00;100338.06;5029545;28;20946;-46
2023/01/01 04:42:37;;;;;;;67.33;61.23;;;;;;;11.78;100.00;100345.06;5009477;28;20548;-46
2023/01/01 04:45:06;;;;;;;66.20;59.70;;;;;;;11.75;100.00;100352.66;5010279;28;20480;-45
2023/01/01 04:47:34;;;;;;;64.80;58.63;;;;;;;11.72;100.00;100342.41;5010323;28;20459;-45
2023/01/01 04:50:02;;;;;;;65.43;59.07;;;;;;;11.74;100.00;100351.84;5010798;28;20433;-44
2023/01/01 04:52:31;;;;;;;66.17;59.47;;;;;;;11.71;100.00;100351.47;5009613;28;20430;-45
2023/01/01 04:54:59;;;;;;;65.67;58.17;;;;;;;11.70;100.00;100344.50;5029255;28;20432;-45
2023/01/01 04:57:30;;;;;;;63.53;56.90;;;;;;;11.72;100.00;100359.25;5030271;28;20478;-47
2023/01/01 04:59:58;;;;;;;64.80;58.40;;;;;;;11.70;100.00;100360.50;5021728;28;20431;-46
2023/01/01 05:02:26;;;;;;;65.83;58.93;;;;;;;11.68;100.00;100366.84;5012533;28;20437;-45
2023/01/01 05:04:54;;;;;;;62.07;55.90;;;;;;;11.68;100.00;100355.34;5019839;28;20486;-45
2023/01/01 05:07:22;;;;;;;63.33;56.90;;;;;;;11.66;100.00;100354.75;5020943;28;20425;-44
2023/01/01 05:09:53;;;;;;;62.33;55.93;;;;;;;11.64;100.00;100360.31;5010568;28;20460;-45
2023/01/01 05:12:21;;;;;;;67.20;54.20;;;;;;;11.65;100.00;100361.94;5025724;28;20447;-45
2023/01/01 05:14:51;;;;;;;61.97;55.73;;;;;;;11.66;100.00;100374.25;5028813;28;20509;-45
2023/01/01 05:17:20;;;;;;;61.70;55.17;;;;;;;11.68;100.00;100380.19;5029517;28;20464;-45
2023/01/01 05:19:48;;;;;;;62.50;56.47;;;;;;;11.67;100.00;100377.75;5029531;28;20539;-48
2023/01/01 05:22:16;;;;;;;68.80;61.90;;;;;;;11.64;100.00;100376.34;5022054;28;20498;-45
2023/01/01 05:24:45;;;;;;;67.53;60.30;;;;;;;11.63;100.00;100392.56;5020382;28;20441;-44
2023/01/01 05:27:18;;;;;;;66.90;60.70;;;;;;;11.63;100.00;100387.22;5026451;28;20512;-44
2023/01/01 05:29:47;;;;;;;68.53;58.50;;;;;;;11.64;100.00;100388.88;5029873;28;20448;-44
2023/01/01 05:32:16;;;;;;;65.23;58.83;;;;;;;11.63;100.00;100401.38;5028743;28;20444;-45
2023/01/01 05:34:43;;;;;;;64.30;57.50;;;;;;;11.65;100.00;100398.50;5012037;28;20522;-45
2023/01/01 05:37:15;;;;;;;65.87;59.40;;;;;;;11.64;100.00;100395.03;5026733;28;20492;-44
2023/01/01 05:39:53;;;;;;;63.90;58.17;;;;;;;11.63;100.00;100390.72;5013238;28;20444;-45
2023/01/01 05:42:23;;;;;;;58.30;53.00;;;;;;;11.65;100.00;100401.16;5009745;28;20520;-45
2023/01/01 05:44:51;;;;;;;60.30;52.93;;;;;;;11.62;100.00;100386.38;5013686;28;20436;-45
2023/01/01 05:47:21;;;;;;;57.60;52.20;;;;;;;11.63;100.00;100395.22;5012918;28;20485;-45
2023/01/01 05:49:52;;;;;;;57.33;51.90;;;;;;;11.65;100.00;100382.47;5020186;28;20543;-45
2023/01/01 05:52:20;;;;;;;57.03;51.50;;;;;;;11.65;100.00;100404.66;5018870;28;20440;-45
2023/01/01 05:54:53;;;;;;;57.47;51.67;;;;;;;11.60;100.00;100409.81;5015694;28;20440;-44
2023/01/01 05:57:22;;;;;;;56.93;51.60;;;;;;;11.60;100.00;100412.50;5010327;28;20974;-44
2023/01/01 05:59:51;;;;;;;55.07;50.10;;;;;;;11.59;100.00;100416.19;5016147;28;20502;-44
2023/01/01 06:02:19;;;;;;;55.40;50.20;;;;;;;11.60;100.00;100417.00;4988758;28;20453;-47
2023/01/01 06:04:47;;;;;;;54.47;49.90;;;;;;;11.57;100.00;100428.94;5009056;28;20441;-45
2023/01/01 06:07:15;;;;;;;53.83;49.03;;;;;;;11.57;100.00;100425.44;5009102;28;20468;-44
2023/01/01 06:09:43;;;;;;;52.43;48.20;;;;;;;11.57;100.00;100418.25;5013543;28;20437;-46
2023/01/01 06:12:10;;;;;;;50.27;45.87;;;;;;;11.55;100.00;100424.84;5013180;28;20468;-45
2023/01/01 06:14:40;;;;;;;49.10;44.67;;;;;;;11.54;100.00;100423.19;5025879;28;20435;-45
2023/01/01 06:17:08;;;;;;;48.67;45.07;;;;;;;11.55;100.00;100428.34;5017515;28;20453;-44
2023/01/01 06:19:36;;;;;;;47.50;43.40;;;;;;;11.57;100.00;100441.47;5009198;28;20785;-47
2023/01/01 06:22:04;;;;;;;49.77;45.80;;;;;;;11.58;100.00;100435.94;5010800;28;20452;-44
2023/01/01 06:24:32;;;;;;;49.33;45.00;;;;;;;11.58;100.00;100437.78;5017729;28;20436;-45
2023/01/01 06:27:05;;;;;;;51.37;46.77;;;;;;;11.56;100.00;100445.16;5009374;28;20477;-45
2023/01/01 06:29:33;;;;;;;48.50;44.40;;;;;;;11.54;100.00;100440.03;5016514;28;20436;-44
2023/01/01 06:32:02;;;;;;;47.03;43.20;;;;;;;11.54;100.00;100449.91;5028118;28;20437;-45
2023/01/01 06:34:30;;;;;;;47.80;43.67;;;;;;;11.52;100.00;100441.28;5012702;28;20444;-45
2023/01/01 06:36:57;;;;;;;45.47;41.90;;;;;;;11.50;100.00;100435.31;5018021;28;20486;-46
2023/01/01 06:39:33;;;;;;;47.00;43.17;;;;;;;11.50;100.00;100429.97;5014822;28;20573;-45
2023/01/01 06:42:01;;;;;;;46.60;42.60;;;;;;;11.48;100.00;100424.03;5007927;28;20437;-48
2023/01/01 06:44:29;;;;;;;45.80;42.03;;;;;;;11.45;100.00;100449.31;5017512;28;20444;-46
2023/01/01 06:46:57;;;;;;;46.77;42.67;;;;;;;11.42;100.00;100460.41;5009341;28;20473;-46
2023/01/01 06:49:26;;;;;;;45.20;41.67;;;;;;;11.40;100.00;100470.50;5010019;28;20779;-46
2023/01/01 06:51:54;;;;;;;43.93;40.20;;;;;;;11.39;100.00;100474.16;5012256;28;20436;-45
2023/01/01 06:54:22;;;;;;;43.27;39.77;;;;;;;11.37;100.00;100476.25;5017922;28;20440;-47
2023/01/01 06:56:50;;;;;;;40.50;37.40;;;;;;;11.35;100.00;100477.47;5032465;28;20444;-45
2023/01/01 06:59:18;;;;;;;42.67;39.50;;;;;;;11.35;100.00;100480.94;5032358;28;20447;-47
2023/01/01 07:01:45;;;;;;;40.93;37.60;;;;;;;11.38;100.00;100487.75;5032658;28;20428;-44
2023/01/01 07:04:15;;;;;;;40.90;37.90;;;;;;;11.37;100.00;100473.56;5031097;28;20458;-46
2023/01/01 07:06:44;;;;;;;41.83;38.50;;;;;;;11.34;100.00;100478.50;5023403;28;20960;-44
2023/01/01 07:09:11;;;;;;;39.77;36.73;;;;;;;11.34;100.00;100479.31;5017149;28;20436;-46
2023/01/01 07:11:39;;;;;;;38.47;35.07;;;;;;;11.35;100.00;100491.63;5012998;28;20532;-45
2023/01/01 07:14:07;;;;;;;36.37;34.17;;;;;;;11.31;100.00;100509.09;5024346;28;20485;-48
2023/01/01 07:16:36;;;;;;;37.30;34.10;;;;;;;11.32;100.00;100516.06;5031820;28;20499;-44
2023/01/01 07:19:04;;;;;;;38.73;35.97;;;;;;;11.31;100.00;100519.78;5032595;28;20454;-45
2023/01/01 07:21:34;;;;;;;36.77;34.03;;;;;;;11.31;100.00;100516.28;5022080;28;20433;-47
2023/01/01 07:24:06;;;;;;;35.17;32.53;;;;;;;11.27;100.00;100507.88;5011524;28;20465;-46
2023/01/01 07:26:34;;;;;;;36.00;33.50;;;;;;;11.27;100.00;100523.88;5012322;28;20530;-49
2023/01/01 07:29:02;;;;;;;33.80;31.13;;;;;;;11.27;100.00;100525.72;5025516;28;20436;-49
2023/01/01 07:31:35;;;;;;;32.23;30.07;;;;;;;11.27;100.00;100529.22;5032039;28;20432;-45
2023/01/01 07:34:04;;;;;;;32.37;30.20;;;;;;;11.28;100.00;100538.06;5028161;28;21072;-45
2023/01/01 07:36:33;;;;;;;31.30;29.20;;;;;;;11.30;100.00;100539.50;5024099;28;20465;-46
2023/01/01 07:39:01;;;;;;;32.43;30.43;;;;;;;11.34;100.00;100545.25;5023921;28;20430;-48
2023/01/01 07:41:31;;;;;;;33.30;30.97;;;;;;;11.34;100.00;100551.41;5029824;28;20432;-45
2023/01/01 07:43:58;;;;;;;31.77;29.87;;;;;;;11.37;100.00;100552.84;5013633;28;20907;-44
2023/01/01 07:46:27;;;;;;;31.60;29.43;;;;;;;11.40;100.00;100553.25;5031353;28;20977;-44
2023/01/01 07:48:56;;;;;;;31.37;29.47;;;;;;;11.44;100.00;100567.03;5029647;28;20918;-44
2023/01/01 07:51:24;;;;;;;32.50;29.90;;;;;;;11.45;100.00;100558.78;5019394;28;20475;-44
2023/01/01 07:53:51;;;;;;;30.83;29.03;;;;;;;11.46;100.00;100555.09;5021806;28;20460;-48
2023/01/01 07:56:19;;;;;;;32.73;30.40;;;;;;;11.49;100.00;100570.72;5030745;28;20456;-45
2023/01/01 07:58:48;;;;;;;30.57;28.87;;;;;;;11.48;100.00;100577.06;5031943;28;20489;-45
2023/01/01 08:01:17;;;;;;;31.03;28.70;;;;;;;11.51;100.00;100581.16;5013422;28;20532;-44
2023/01/01 08:03:51;;;;;;;32.60;30.40;;;;;;;11.48;100.00;100574.41;5011212;28;20990;-45
2023/01/01 08:06:21;;;;;;;32.37;30.37;;;;;;;11.49;100.00;100585.91;5010613;28;20548;-48
2023/01/01 08:08:49;;;;;;;33.57;31.17;;;;;;;11.47;100.00;100578.09;5021265;28;20467;-44
2023/01/01 08:11:17;;;;;;;33.37;30.47;;;;;;;11.46;100.00;100594.31;5011570;28;20453;-45
2023/01/01 08:13:45;;;;;;;31.37;29.40;;;;;;;11.42;100.00;100595.75;5011752;28;20826;-44
2023/01/01 08:16:14;;;;;;;31.30;29.37;;;;;;;11.43;100.00;100608.91;5030354;28;20539;-45
2023/01/01 08:18:42;;;;;;;32.17;29.97;;;;;;;11.41;100.00;100586.13;5031047;28;20507;-44
2023/01/01 08:21:10;;;;;;;31.50;29.53;;;;;;;11.41;100.00;100600.28;5019578;28;20494;-45
2023/01/01 08:23:38;;;;;;;32.33;30.10;;;;;;;11.40;100.00;100603.97;5023538;28;20542;-45
2023/01/01 08:26:06;;;;;;;32.13;30.00;;;;;;;11.38;100.00;100630.03;5022412;28;20463;-44
2023/01/01 08:28:34;;;;;;;30.87;28.83;;;;;;;11.37;100.00;100641.78;5011665;28;20839;-45
2023/01/01 08:31:02;;;;;;;31.27;28.80;;;;;;;11.38;100.00;100645.28;5026471;28;20421;-44
2023/01/01 08:33:31;;;;;;;32.23;29.43;;;;;;;11.38;100.00;100640.72;5022421;28;20919;-44
2023/01/01 08:36:00;;;;;;;32.00;29.97;;;;;;;11.34;100.00;100652.84;5028683;28;20535;-44
2023/01/01 08:38:28;;;;;;;33.33;30.37;;;;;;;11.33;100.00;100640.53;5024981;28;20954;-44
2023/01/01 08:40:56;;;;;;;31.37;29.00;;;;;;;11.32;100.00;100664.78;5014916;28;20425;-44
2023/01/01 08:43:24;;;;;;;31.03;28.73;;;;;;;11.31;100.00;100661.28;5021172;28;20462;-44
2023/01/01 08:45:52;;;;;;;31.23;29.50;;;;;;;11.29;100.00;100668.66;5010022;28;20532;-45
2023/01/01 08:48:20;;;;;;;30.30;28.40;;;;;;;11.32;100.00;100675.44;5010939;28;20480;-44
2023/01/01 08:50:59;;;;;;;31.17;29.10;;;;;;;11.28;100.00;100680.38;5015823;28;20435;-45
2023/01/01 08:53:28;;;;;;;32.43;30.17;;;;;;;11.29;100.00;100710.56;5023460;28;21009;-44
2023/01/01 08:55:57;;;;;;;32.10;29.60;;;;;;;11.29;100.00;100713.22;5017565;28;20461;-44
2023/01/01 08:58:26;;;;;;;31.23;28.80;;;;;;;11.26;100.00;100709.09;5012540;28;20433;-44
2023/01/01 09:00:55;;;;;;;33.27;29.77;;;;;;;11.29;100.00;100703.34;5011105;28;20437;-44
2023/01/01 09:03:24;;;;;;;31.27;29.17;;;;;;;11.32;100.00;100713.63;5013955;28;20532;-45
2023/01/01 09:05:53;;;;;;;30.93;28.90;;;;;;;11.36;100.00;100720.22;5019876;28;20502;-46
2023/01/01 09:08:22;;;;;;;30.40;28.20;;;;;;;11.38;100.00;100733.38;5007016;28;21060;-44
2023/01/01 09:10:51;;;;;;;30.77;28.80;;;;;;;11.43;100.00;100731.75;5016749;28;20440;-45
2023/01/01 09:13:22;;;;;;;30.70;28.60;;;;;;;11.42;100.00;100715.91;5007483;28;20468;-45
2023/01/01 09:15:49;;;;;;;32.43;29.47;;;;;;;11.46;100.00;100763.38;5011427;28;20456;-45
2023/01/01 09:18:17;;;;;;;31.33;28.93;;;;;;;11.42;100.00;100742.59;5027723;28;20471;-44
2023/01/01 09:20:45;;;;;;;31.07;28.90;;;;;;;11.43;100.00;100753.09;5021921;28;20849;-47
2023/01/01 09:23:13;;;;;;;31.13;28.47;;;;;;;11.47;100.00;100774.88;5008616;28;20843;-44
2023/01/01 09:25:42;;;;;;;30.93;28.27;;;;;;;11.47;100.00;100786.38;5008351;28;20837;-45
2023/01/01 09:28:12;;;;;;;31.23;29.00;;;;;;;11.43;100.00;100787.00;5009065;28;20512;-44
2023/01/01 09:30:40;;;;;;;31.23;28.83;;;;;;;11.42;100.00;100804.84;5009262;28;20433;-44
2023/01/01 09:33:07;;;;;;;32.10;29.07;;;;;;;11.40;100.00;100800.75;5008750;28;20457;-45
2023/01/01 09:35:37;;;;;;;32.60;29.53;;;;;;;11.35;100.00;100792.53;5008214;28;20874;-45
2023/01/01 09:38:04;;;;;;;33.37;30.43;;;;;;;11.29;100.00;100787.97;5019484;28;20930;-45
2023/01/01 09:40:41;;;;;;;30.60;28.30;;;;;;;11.23;100.00;100800.25;5023297;28;20456;-49
2023/01/01 09:43:32;;;;;;;30.50;27.90;;;;;;;11.21;100.00;100798.81;5023754;28;20818;-46
2023/01/01 09:46:02;;;;;;;31.60;29.10;;;;;;;11.20;100.00;100789.16;5027951;28;20452;-45
2023/01/01 09:48:31;;;;;;;31.07;28.67;;;;;;;11.20;100.00;100805.19;5028523;28;20486;-45
2023/01/01 09:51:02;;;;;;;31.73;29.17;;;;;;;11.18;100.00;100825.91;5023788;28;20456;-45
2023/01/01 09:53:34;;;;;;;33.53;30.37;;;;;;;11.15;100.00;100818.28;5009431;28;20461;-46
2023/01/01 09:56:04;;;;;;;32.97;30.37;;;;;;;11.14;100.00;100824.66;5016122;28;20503;-45
2023/01/01 09:58:37;;;;;;;33.03;30.17;;;;;;;11.16;100.00;100838.63;5021038;28;20440;-45
2023/01/01 10:01:17;;;;;;;33.40;30.33;;;;;;;11.08;100.00;100840.44;4990550;28;20464;-45
2023/01/01 10:03:49;;;;;;;31.53;29.13;;;;;;;11.06;100.00;100860.31;4995917;28;20874;-46
2023/01/01 10:06:22;;;;;;;32.07;29.43;;;;;;;11.03;100.00;100842.88;5020013;28;21263;-45
2023/01/01 10:09:05;;;;;;;32.57;29.33;;;;;;;11.01;100.00;100868.09;4986440;28;21317;-46
2023/01/01 10:11:42;;;;;;;33.87;31.00;;;;;;;10.97;100.00;100832.97;5017091;28;20443;-45
2023/01/01 10:14:19;;;;;;;31.73;29.40;;;;;;;10.97;100.00;100857.00;5013486;28;20462;-45
2023/01/01 10:16:52;;;;;;;33.03;29.77;;;;;;;11.00;100.00;100863.78;5016028;28;20452;-45
2023/01/01 10:19:26;;;;;;;33.07;29.97;;;;;;;11.01;100.00;100854.78;5023889;28;20490;-45
2023/01/01 10:21:57;;;;;;;32.27;29.67;;;;;;;11.06;100.00;100860.31;5022906;28;20794;-45
2023/01/01 10:24:38;;;;;;;32.73;29.87;;;;;;;11.15;100.00;100859.16;5023142;28;20439;-46
2023/01/01 10:27:07;;;;;;;31.20;28.93;;;;;;;11.18;100.00;100866.75;5028932;28;20480;-45
2023/01/01 10:29:42;;;;;;;31.90;29.20;;;;;;;11.19;100.00;100854.25;5029419;28;20473;-45
2023/01/01 10:32:19;;;;;;;31.97;29.37;;;;;;;11.20;100.00;100871.91;5013036;28;20448;-47
2023/01/01 10:34:49;;;;;;;33.07;30.33;;;;;;;11.19;100.00;100880.94;5021513;28;20435;-45
2023/01/01 10:37:17;;;;;;;33.83;31.00;;;;;;;11.18;100.00;100873.94;5023141;28;20505;-45
2023/01/01 10:39:46;;;;;;;32.30;29.07;;;;;;;11.14;100.00;100878.84;5021718;28;20551;-44
2023/01/01 10:42:16;;;;;;;30.83;28.13;;;;;;;11.12;100.00;100878.22;5013262;28;20430;-45
2023/01/01 10:44:46;;;;;;;31.60;29.10;;;;;;;11.11;100.00;100881.91;5012536;28;20424;-45
2023/01/01 10:47:25;;;;;;;30.23;27.93;;;;;;;11.10;100.00;100881.09;5029340;28;20813;-45
2023/01/01 10:49:56;;;;;;;31.23;28.23;;;;;;;11.16;100.00;100870.66;5028000;28;20468;-45
2023/01/01 10:52:35;;;;;;;31.40;28.90;;;;;;;11.13;100.00;100871.06;5021235;28;20420;-44
2023/01/01 10:55:05;;;;;;;32.53;29.13;;;;;;;11.15;100.00;100861.81;5024934;28;20446;-44
2023/01/01 10:57:36;;;;;;;32.37;29.33;;;;;;;11.07;100.00;100856.66;5023142;28;21171;-45
2023/01/01 11:00:22;;;;;;;32.17;29.00;;;;;;;11.11;100.00;100866.72;5021175;28;20456;-45
2023/01/01 11:03:12;;;;;;;32.30;29.40;;;;;;;11.11;100.00;100860.56;5013401;28;20469;-48
2023/01/01 11:05:40;;;;;;;34.23;29.63;;;;;;;11.11;100.00;100874.72;5031626;28;20462;-45
2023/01/01 11:08:18;;;;;;;33.40;29.93;;;;;;;11.09;100.00;100889.28;5015706;28;20417;-44
2023/01/01 11:10:51;;;;;;;31.40;29.00;;;;;;;11.07;100.00;100897.50;5011826;28;20828;-44
2023/01/01 11:13:21;;;;;;;32.90;29.83;;;;;;;11.14;100.00;100896.72;5019068;28;20483;-45
2023/01/01 11:15:50;;;;;;;32.37;29.10;;;;;;;11.13;100.00;100889.72;5030606;28;20453;-45
2023/01/01 11:18:22;;;;;;;32.77;29.30;;;;;;;11.11;100.00;100897.91;5026725;28;20479;-44